createdAt,value
2022-08-24T00:01:40.539Z,98365.59
2022-08-24T00:04:32.024Z,98374.81
2022-08-24T00:07:27.388Z,98371.19
2022-08-24T00:10:17.692Z,98369.00
2022-08-24T00:13:06.301Z,98368.56
2022-08-24T00:15:55.209Z,98370.63
2022-08-24T00:18:48.271Z,98356.75
2022-08-24T00:21:36.845Z,98359.34
2022-08-24T00:24:25.678Z,98373.69
2022-08-24T00:27:14.431Z,98372.31
2022-08-24T00:30:04.313Z,98374.38
2022-08-24T00:32:54.423Z,98379.44
2022-08-24T00:35:44.595Z,98382.00
2022-08-24T00:38:35.655Z,98374.97
2022-08-24T00:41:24.998Z,98378.59
2022-08-24T00:44:15.627Z,98391.75
2022-08-24T00:47:12.635Z,98391.66
2022-08-24T00:50:06.223Z,98397.78
2022-08-24T00:53:01.167Z,98401.19
2022-08-24T00:55:53.147Z,98406.38
2022-08-24T00:58:47.331Z,98408.50
2022-08-24T01:01:47.483Z,98414.94
2022-08-24T01:04:42.386Z,98414.47
2022-08-24T01:07:32.158Z,98414.13
2022-08-24T01:10:25.951Z,98413.94
2022-08-24T01:13:16.157Z,98422.69
2022-08-24T01:16:08.502Z,98411.16
2022-08-24T01:18:56.022Z,98412.63
2022-08-24T01:21:54.527Z,98411.88
2022-08-24T01:24:44.997Z,98415.63
2022-08-24T01:27:36.517Z,98420.13
2022-08-24T01:30:30.391Z,98409.47
2022-08-24T01:33:24.888Z,98413.13
2022-08-24T01:36:21.153Z,98425.06
2022-08-24T01:39:20.763Z,98418.06
2022-08-24T01:42:11.838Z,98421.91
2022-08-24T01:45:04.079Z,98425.81
2022-08-24T01:47:52.678Z,98432.41
2022-08-24T01:50:41.127Z,98435.59
2022-08-24T01:53:30.921Z,98429.41
2022-08-24T01:56:19.377Z,98431.63
2022-08-24T01:59:12.569Z,98435.00
2022-08-24T02:02:07.829Z,98433.75
2022-08-24T02:04:56.489Z,98439.19
2022-08-24T02:07:46.013Z,98435.81
2022-08-24T02:10:35.445Z,98446.41
2022-08-24T02:13:25.017Z,98443.38
2022-08-24T02:16:15.383Z,98449.00
2022-08-24T02:19:03.959Z,98448.53
2022-08-24T02:21:53.435Z,98457.09
2022-08-24T02:24:42.008Z,98459.84
2022-08-24T02:27:30.819Z,98458.00
2022-08-24T02:30:19.839Z,98455.91
2022-08-24T02:33:09.789Z,98452.66
2022-08-24T02:35:58.383Z,98446.19
2022-08-24T02:38:46.892Z,98435.72
2022-08-24T02:41:39.537Z,98442.31
2022-08-24T02:44:28.289Z,98456.38
2022-08-24T02:47:17.707Z,98450.63
2022-08-24T02:50:12.080Z,98461.06
2022-08-24T02:53:00.529Z,98459.97
2022-08-24T02:55:49.752Z,98462.25
2022-08-24T02:58:39.299Z,98456.06
2022-08-24T03:01:30.409Z,98459.22
2022-08-24T03:04:20.887Z,98461.00
2022-08-24T03:07:10.858Z,98464.47
2022-08-24T03:09:59.410Z,98471.38
2022-08-24T03:12:48.254Z,98463.31
2022-08-24T03:15:36.698Z,98454.97
2022-08-24T03:18:26.689Z,98460.56
2022-08-24T03:21:15.704Z,98466.38
2022-08-24T03:24:07.451Z,98460.09
2022-08-24T03:26:56.326Z,98457.84
2022-08-24T03:29:47.558Z,98464.09
2022-08-24T03:32:38.906Z,98453.22
2022-08-24T03:35:27.634Z,98457.19
2022-08-24T03:38:16.140Z,98458.03
2022-08-24T03:41:06.414Z,98460.63
2022-08-24T03:43:56.504Z,98466.56
2022-08-24T03:46:46.450Z,98458.78
2022-08-24T03:49:35.013Z,98457.28
2022-08-24T03:52:23.646Z,98464.84
2022-08-24T03:55:14.670Z,98458.28
2022-08-24T03:58:04.809Z,98464.59
2022-08-24T04:00:54.802Z,98456.88
2022-08-24T04:03:46.107Z,98457.28
2022-08-24T04:06:35.788Z,98455.56
2022-08-24T04:09:24.610Z,98450.84
2022-08-24T04:12:13.050Z,98452.38
2022-08-24T04:15:03.463Z,98454.50
2022-08-24T04:17:52.500Z,98450.53
2022-08-24T04:20:42.355Z,98454.06
2022-08-24T04:23:47.074Z,98456.94
2022-08-24T04:26:45.298Z,98465.56
2022-08-24T04:29:36.109Z,98456.69
2022-08-24T04:32:25.958Z,98454.44
2022-08-24T04:35:16.311Z,98455.38
2022-08-24T04:38:04.984Z,98449.28
2022-08-24T04:40:54.086Z,98454.03
2022-08-24T04:43:45.361Z,98458.72
2022-08-24T04:46:35.479Z,98465.75
2022-08-24T04:49:25.402Z,98457.41
2022-08-24T04:52:13.794Z,98457.34
2022-08-24T04:55:04.124Z,98452.88
2022-08-24T04:57:56.487Z,98451.53
2022-08-24T05:00:45.945Z,98458.25
2022-08-24T05:03:35.351Z,98452.03
2022-08-24T05:06:26.732Z,98454.50
2022-08-24T05:09:15.145Z,98448.69
2022-08-24T05:12:05.635Z,98454.56
2022-08-24T05:14:59.113Z,98448.63
2022-08-24T05:17:51.329Z,98448.53
2022-08-24T05:20:41.715Z,98447.59
2022-08-24T05:23:31.663Z,98458.75
2022-08-24T05:26:24.043Z,98456.34
2022-08-24T05:29:12.701Z,98466.19
2022-08-24T05:32:06.393Z,98469.38
2022-08-24T05:34:54.984Z,98465.53
2022-08-24T05:37:44.549Z,98467.34
2022-08-24T05:40:38.384Z,98473.81
2022-08-24T05:43:26.979Z,98476.22
2022-08-24T05:46:17.035Z,98481.56
2022-08-24T05:49:08.729Z,98493.50
2022-08-24T05:51:57.105Z,98492.56
2022-08-24T05:54:47.035Z,98490.19
2022-08-24T05:57:38.865Z,98486.00
2022-08-24T06:00:45.776Z,98495.03
2022-08-24T06:03:34.995Z,98498.56
2022-08-24T06:06:25.408Z,98498.78
2022-08-24T06:09:14.529Z,98495.94
2022-08-24T06:12:03.563Z,98494.25
2022-08-24T06:14:54.012Z,98490.16
2022-08-24T06:17:44.926Z,98486.16
2022-08-24T06:20:34.308Z,98475.63
2022-08-24T06:23:23.090Z,98487.56
2022-08-24T06:26:37.711Z,98486.75
2022-08-24T06:29:26.668Z,98495.91
2022-08-24T06:32:20.538Z,98492.28
2022-08-24T06:35:11.465Z,98498.25
2022-08-24T06:38:00.220Z,98506.94
2022-08-24T06:40:48.754Z,98505.91
2022-08-24T06:43:37.598Z,98498.97
2022-08-24T06:46:33.117Z,98502.34
2022-08-24T06:49:23.858Z,98501.25
2022-08-24T06:52:12.353Z,98507.84
2022-08-24T06:55:01.190Z,98524.78
2022-08-24T06:57:52.484Z,98524.38
2022-08-24T07:00:42.071Z,98523.81
2022-08-24T07:03:30.693Z,98531.88
2022-08-24T07:06:36.911Z,98532.25
2022-08-24T07:09:25.889Z,98532.59
2022-08-24T07:12:14.352Z,98533.75
2022-08-24T07:15:03.195Z,98536.00
2022-08-24T07:17:57.832Z,98539.56
2022-08-24T07:20:46.907Z,98528.44
2022-08-24T07:23:58.391Z,98537.47
2022-08-24T07:26:47.883Z,98544.75
2022-08-24T07:29:50.471Z,98538.38
2022-08-24T07:32:45.237Z,98542.72
2022-08-24T07:35:34.837Z,98533.69
2022-08-24T07:38:23.681Z,98541.56
2022-08-24T07:41:38.294Z,98534.81
2022-08-24T07:44:23.551Z,98533.47
2022-08-24T07:47:37.034Z,98539.03
2022-08-24T07:50:23.335Z,98538.06
2022-08-24T07:53:15.020Z,98527.38
2022-08-24T07:56:07.806Z,98537.63
2022-08-24T07:58:59.403Z,98539.38
2022-08-24T08:01:48.148Z,98540.03
2022-08-24T08:04:36.604Z,98544.81
2022-08-24T08:07:25.611Z,98542.28
2022-08-24T08:10:14.452Z,98541.41
2022-08-24T08:13:03.679Z,98537.88
2022-08-24T08:15:59.334Z,98548.03
2022-08-24T08:18:56.398Z,98549.34
2022-08-24T08:22:12.737Z,98549.94
2022-08-24T08:25:34.956Z,98554.03
2022-08-24T08:28:35.471Z,98559.31
2022-08-24T08:31:26.026Z,98564.34
2022-08-24T08:34:16.388Z,98559.75
2022-08-24T08:37:05.585Z,98556.91
2022-08-24T08:39:54.864Z,98560.38
2022-08-24T08:42:58.160Z,98557.38
2022-08-24T08:46:14.245Z,98554.59
2022-08-24T08:49:51.271Z,98550.91
2022-08-24T08:53:17.665Z,98560.84
2022-08-24T08:56:21.731Z,98556.09
2022-08-24T08:59:22.185Z,98567.84
2022-08-24T09:02:35.610Z,98570.09
2022-08-24T09:05:59.893Z,98564.56
2022-08-24T09:09:08.361Z,98561.06
2022-08-24T09:12:07.857Z,98563.94
2022-08-24T09:15:16.838Z,98565.69
2022-08-24T09:18:17.013Z,98569.09
2022-08-24T09:21:31.385Z,98558.41
2022-08-24T09:24:43.285Z,98556.47
2022-08-24T09:28:02.175Z,98552.06
2022-08-24T09:31:06.393Z,98546.63
2022-08-24T09:34:10.164Z,98541.75
2022-08-24T09:37:12.784Z,98547.88
2022-08-24T09:40:17.196Z,98540.63
2022-08-24T09:43:36.557Z,98542.00
2022-08-24T09:47:08.840Z,98541.44
2022-08-24T09:50:36.338Z,98534.81
2022-08-24T09:54:18.263Z,98531.63
2022-08-24T09:57:50.415Z,98524.66
2022-08-24T10:00:47.724Z,98529.94
2022-08-24T10:03:51.935Z,98528.16
2022-08-24T10:06:55.688Z,98528.38
2022-08-24T10:10:04.610Z,98539.03
2022-08-24T10:13:04.738Z,98535.97
2022-08-24T10:16:07.403Z,98535.16
2022-08-24T10:19:07.901Z,98535.44
2022-08-24T10:22:05.610Z,98541.63
2022-08-24T10:25:11.458Z,98534.53
2022-08-24T10:28:16.882Z,98539.19
2022-08-24T10:31:12.178Z,98539.56
2022-08-24T10:34:29.001Z,98543.50
2022-08-24T10:37:42.302Z,98536.06
2022-08-24T10:40:39.899Z,98529.91
2022-08-24T10:43:49.036Z,98542.94
2022-08-24T10:46:49.321Z,98540.53
2022-08-24T10:50:13.739Z,98534.69
2022-08-24T10:53:15.503Z,98536.34
2022-08-24T10:56:12.011Z,98534.47
2022-08-24T10:59:16.395Z,98542.97
2022-08-24T11:02:12.725Z,98539.75
2022-08-24T11:05:08.368Z,98531.72
2022-08-24T11:08:03.413Z,98538.28
2022-08-24T11:11:14.483Z,98534.56
2022-08-24T11:14:10.330Z,98515.75
2022-08-24T11:17:17.803Z,98523.25
2022-08-24T11:20:29.876Z,98511.56
2022-08-24T11:23:29.596Z,98509.78
2022-08-24T11:26:30.420Z,98519.03
2022-08-24T11:29:23.104Z,98515.13
2022-08-24T11:32:27.701Z,98511.34
2022-08-24T11:35:27.574Z,98510.41
2022-08-24T11:38:27.151Z,98512.34
2022-08-24T11:41:26.992Z,98515.00
2022-08-24T11:44:36.400Z,98517.88
2022-08-24T11:47:51.928Z,98518.41
2022-08-24T11:50:50.404Z,98519.88
2022-08-24T11:53:46.766Z,98513.63
2022-08-24T11:56:44.555Z,98507.53
2022-08-24T11:59:43.286Z,98510.22
2022-08-24T12:02:37.598Z,98514.28
2022-08-24T12:05:32.055Z,98507.84
2022-08-24T12:08:28.731Z,98511.13
2022-08-24T12:11:25.273Z,98518.69
2022-08-24T12:14:23.114Z,98526.88
2022-08-24T12:17:20.532Z,98526.28
2022-08-24T12:20:23.252Z,98521.06
2022-08-24T12:23:17.038Z,98536.00
2022-08-24T12:26:10.911Z,98530.75
2022-08-24T12:29:03.051Z,98520.03
2022-08-24T12:31:56.342Z,98518.59
2022-08-24T12:34:59.106Z,98515.59
2022-08-24T12:37:52.303Z,98520.81
2022-08-24T12:40:46.242Z,98527.16
2022-08-24T12:43:49.553Z,98519.41
2022-08-24T12:46:45.222Z,98524.75
2022-08-24T12:49:50.382Z,98518.91
2022-08-24T12:53:15.265Z,98512.25
2022-08-24T12:56:47.224Z,98507.00
2022-08-24T12:59:43.800Z,98516.25
2022-08-24T13:02:47.638Z,98518.13
2022-08-24T13:05:45.141Z,98510.13
2022-08-24T13:08:38.406Z,98514.41
2022-08-24T13:11:32.415Z,98505.31
2022-08-24T13:14:24.264Z,98499.22
2022-08-24T13:17:14.682Z,98499.22
2022-08-24T13:20:20.193Z,98493.94
2022-08-24T13:23:18.857Z,98483.66
2022-08-24T13:26:26.711Z,98483.16
2022-08-24T13:29:17.607Z,98480.94
2022-08-24T13:32:08.355Z,98471.75
2022-08-24T13:34:59.198Z,98476.03
2022-08-24T13:38:27.087Z,98474.78
2022-08-24T13:41:30.355Z,98477.22
2022-08-24T13:44:26.765Z,98475.25
2022-08-24T13:47:20.967Z,98466.66
2022-08-24T13:50:15.589Z,98458.88
2022-08-24T13:53:31.120Z,98448.78
2022-08-24T13:56:32.758Z,98453.50
2022-08-24T13:59:53.587Z,98446.66
2022-08-24T14:02:59.840Z,98441.59
2022-08-24T14:05:52.121Z,98435.31
2022-08-24T14:08:51.548Z,98436.28
2022-08-24T14:11:56.024Z,98435.53
2022-08-24T14:15:03.693Z,98426.06
2022-08-24T14:18:03.545Z,98413.16
2022-08-24T14:21:09.867Z,98420.75
2022-08-24T14:24:04.109Z,98423.06
2022-08-24T14:27:08.281Z,98421.53
2022-08-24T14:30:35.598Z,98406.09
2022-08-24T14:33:30.739Z,98411.81
2022-08-24T14:36:22.099Z,98415.72
2022-08-24T14:39:20.947Z,98421.75
2022-08-24T14:42:18.233Z,98418.88
2022-08-24T14:45:10.454Z,98423.25
2022-08-24T14:48:05.967Z,98440.38
2022-08-24T14:51:02.131Z,98463.56
2022-08-24T14:54:00.651Z,98468.91
2022-08-24T14:57:00.431Z,98472.59
2022-08-24T15:00:01.740Z,98470.56
2022-08-24T15:03:25.973Z,98458.22
2022-08-24T15:06:27.826Z,98438.66
2022-08-24T15:09:24.120Z,98430.81
2022-08-24T15:12:21.336Z,98429.38
2022-08-24T15:15:19.124Z,98430.63
2022-08-24T15:18:34.863Z,98436.25
2022-08-24T15:21:34.635Z,98449.50
2022-08-24T15:24:36.948Z,98453.53
2022-08-24T15:27:34.683Z,98438.81
2022-08-24T15:30:28.362Z,98446.50
2022-08-24T15:33:19.629Z,98455.31
2022-08-24T15:36:12.059Z,98470.97
2022-08-24T15:39:01.727Z,98468.13
2022-08-24T15:41:50.593Z,98469.09
2022-08-24T15:44:41.228Z,98471.06
2022-08-24T15:47:33.240Z,98481.88
2022-08-24T15:50:25.287Z,98485.41
2022-08-24T15:53:30.423Z,98480.63
2022-08-24T15:56:36.109Z,98468.16
2022-08-24T15:59:29.748Z,98465.56
2022-08-24T16:02:28.647Z,98471.84
2022-08-24T16:05:38.350Z,98458.53
2022-08-24T16:08:26.768Z,98462.38
2022-08-24T16:11:27.577Z,98466.22
2022-08-24T16:14:26.152Z,98486.19
2022-08-24T16:17:27.744Z,98472.59
2022-08-24T16:20:32.780Z,98472.38
2022-08-24T16:23:28.378Z,98471.16
2022-08-24T16:26:23.939Z,98472.75
2022-08-24T16:29:45.219Z,98459.00
2022-08-24T16:32:49.816Z,98453.34
2022-08-24T16:35:40.959Z,98462.28
2022-08-24T16:38:31.347Z,98477.13
2022-08-24T16:41:22.385Z,98491.97
2022-08-24T16:44:11.779Z,98500.03
2022-08-24T16:47:00.178Z,98508.69
2022-08-24T16:49:49.212Z,98503.06
2022-08-24T16:52:39.006Z,98502.19
2022-08-24T16:55:28.638Z,98509.75
2022-08-24T16:58:17.743Z,98513.44
2022-08-24T17:01:06.403Z,98524.88
2022-08-24T17:03:55.429Z,98524.78
2022-08-24T17:06:44.484Z,98530.66
2022-08-24T17:09:36.649Z,98524.22
2022-08-24T17:12:27.097Z,98524.94
2022-08-24T17:15:16.342Z,98526.09
2022-08-24T17:18:07.551Z,98531.31
2022-08-24T17:20:55.935Z,98526.38
2022-08-24T17:23:44.631Z,98527.19
2022-08-24T17:26:34.818Z,98528.09
2022-08-24T17:29:24.116Z,98520.56
2022-08-24T17:32:13.140Z,98535.81
2022-08-24T17:35:03.259Z,98534.56
2022-08-24T17:37:53.730Z,98529.31
2022-08-24T17:40:42.042Z,98533.97
2022-08-24T17:43:32.152Z,98536.94
2022-08-24T17:46:22.092Z,98537.66
2022-08-24T17:49:12.352Z,98539.22
2022-08-24T17:52:00.806Z,98541.34
2022-08-24T17:54:49.300Z,98539.03
2022-08-24T17:57:38.785Z,98540.22
2022-08-24T18:00:28.845Z,98530.56
2022-08-24T18:03:17.417Z,98531.78
2022-08-24T18:06:06.138Z,98532.69
2022-08-24T18:08:56.803Z,98533.84
2022-08-24T18:11:45.293Z,98543.97
2022-08-24T18:14:34.698Z,98552.31
2022-08-24T18:17:31.465Z,98557.94
2022-08-24T18:20:24.180Z,98559.69
2022-08-24T18:23:13.066Z,98560.81
2022-08-24T18:26:06.094Z,98555.63
2022-08-24T18:28:55.662Z,98554.41
2022-08-24T18:31:44.751Z,98571.19
2022-08-24T18:34:35.119Z,98567.66
2022-08-24T18:37:24.330Z,98559.19
2022-08-24T18:40:20.392Z,98557.13
2022-08-24T18:43:10.294Z,98551.72
2022-08-24T18:45:59.077Z,98554.31
2022-08-24T18:48:47.548Z,98549.47
2022-08-24T18:51:38.395Z,98549.25
2022-08-24T18:54:31.659Z,98544.22
2022-08-24T18:57:20.664Z,98539.59
2022-08-24T19:00:11.965Z,98541.97
2022-08-24T19:03:05.685Z,98538.22
2022-08-24T19:05:54.412Z,98539.66
2022-08-24T19:08:44.229Z,98549.22
2022-08-24T19:11:32.590Z,98545.47
2022-08-24T19:14:21.096Z,98539.09
2022-08-24T19:17:09.583Z,98548.84
2022-08-24T19:19:58.413Z,98541.75
2022-08-24T19:22:47.746Z,98549.44
2022-08-24T19:25:38.915Z,98553.56
2022-08-24T19:28:27.907Z,98557.84
2022-08-24T19:31:16.663Z,98560.63
2022-08-24T19:34:05.439Z,98555.59
2022-08-24T19:36:55.018Z,98559.69
2022-08-24T19:39:43.612Z,98558.34
2022-08-24T19:42:36.779Z,98565.59
2022-08-24T19:45:44.980Z,98574.13
2022-08-24T19:48:34.873Z,98574.88
2022-08-24T19:51:23.401Z,98576.97
2022-08-24T19:54:12.093Z,98573.91
2022-08-24T19:57:02.012Z,98582.22
2022-08-24T19:59:52.597Z,98589.16
2022-08-24T20:02:41.083Z,98595.75
2022-08-24T20:05:30.117Z,98586.75
2022-08-24T20:08:20.089Z,98577.38
2022-08-24T20:11:09.402Z,98567.22
2022-08-24T20:13:57.761Z,98572.28
2022-08-24T20:16:47.624Z,98578.28
2022-08-24T20:19:40.173Z,98585.56
2022-08-24T20:22:29.326Z,98598.72
2022-08-24T20:25:18.725Z,98590.66
2022-08-24T20:31:19.038Z,98605.16
2022-08-24T20:34:08.859Z,98608.03
2022-08-24T20:36:58.674Z,98612.66
2022-08-24T20:39:47.080Z,98609.84
2022-08-24T20:42:35.591Z,98615.66
2022-08-24T20:45:23.960Z,98615.09
2022-08-24T20:48:13.827Z,98613.03
2022-08-24T20:51:03.657Z,98616.22
2022-08-24T20:53:52.092Z,98628.03
2022-08-24T20:56:40.523Z,98624.44
2022-08-24T20:59:29.042Z,98619.56
2022-08-24T21:02:17.420Z,98624.44
2022-08-24T21:05:06.742Z,98619.19
2022-08-24T21:07:58.042Z,98620.63
2022-08-24T21:10:47.738Z,98625.91
2022-08-24T21:13:36.192Z,98627.00
2022-08-24T21:16:24.886Z,98619.84
2022-08-24T21:19:17.845Z,98633.56
2022-08-24T21:22:06.402Z,98620.06
2022-08-24T21:24:56.220Z,98625.97
2022-08-24T21:27:47.596Z,98624.50
2022-08-24T21:30:36.032Z,98614.97
2022-08-24T21:33:42.061Z,98617.94
2022-08-24T21:36:31.926Z,98620.13
2022-08-24T21:39:20.486Z,98614.94
2022-08-24T21:42:10.773Z,98609.50
2022-08-24T21:44:59.187Z,98605.78
2022-08-24T21:47:47.682Z,98604.63
2022-08-24T21:50:36.223Z,98602.22
2022-08-24T21:53:28.439Z,98602.97
2022-08-24T21:56:23.612Z,98599.34
2022-08-24T21:59:13.821Z,98600.06
2022-08-24T22:02:04.174Z,98594.47
2022-08-24T22:04:56.791Z,98599.84
2022-08-24T22:07:45.808Z,98596.50
2022-08-24T22:10:34.162Z,98593.84
2022-08-24T22:13:22.597Z,98583.53
2022-08-24T22:16:13.422Z,98583.53
2022-08-24T22:19:02.215Z,98580.19
2022-08-24T22:21:50.815Z,98577.94
2022-08-24T22:24:39.166Z,98567.25
2022-08-24T22:27:27.654Z,98572.63
2022-08-24T22:30:18.414Z,98576.53
2022-08-24T22:33:09.357Z,98566.59
2022-08-24T22:35:57.849Z,98565.63
2022-08-24T22:38:46.455Z,98569.47
2022-08-24T22:41:35.355Z,98560.72
2022-08-24T22:44:24.283Z,98560.97
2022-08-24T22:47:13.401Z,98574.38
2022-08-24T22:50:05.648Z,98558.09
2022-08-24T22:52:54.559Z,98556.28
2022-08-24T22:55:43.067Z,98556.81
2022-08-24T22:58:31.571Z,98552.47
2022-08-24T23:01:21.864Z,98549.84
2022-08-24T23:04:13.117Z,98541.59
2022-08-24T23:07:03.890Z,98547.16
2022-08-24T23:09:52.339Z,98534.84
2022-08-24T23:12:40.841Z,98542.78
2022-08-24T23:15:29.514Z,98541.69
2022-08-24T23:18:31.990Z,98537.59
2022-08-24T23:21:21.039Z,98532.94
2022-08-24T23:24:13.213Z,98534.66
2022-08-24T23:27:02.681Z,98528.91
2022-08-24T23:29:51.328Z,98529.31
2022-08-24T23:32:40.827Z,98528.97
2022-08-24T23:35:29.621Z,98534.22
2022-08-24T23:38:18.323Z,98532.09
2022-08-24T23:41:12.685Z,98537.66
2022-08-24T23:44:02.614Z,98532.19
2022-08-24T23:46:51.447Z,98540.75
2022-08-24T23:49:41.801Z,98535.00
2022-08-24T23:52:30.747Z,98536.16
2022-08-24T23:55:21.082Z,98534.53
2022-08-24T23:58:11.473Z,98544.84
